Time;durP1;ratioP1;P1;durP2;ratioP2;P2;SDS_P1;SDS_P2;PMS_P1;PMS_P2;Temp;Humidity;BMP_temperature;BMP_pressure;BME280_temperature;BME280_humidity;BME280_pressure;Samples;Min_cycle;Max_cycle;Signal;HPM_P1;HPM_P2
2021/10/03 00:00:07;;;;;;;48.50;25.70;;;;;;;3.44;100.00;101435.23;1727483;82;21516;-80
2021/10/03 00:02:40;;;;;;;49.55;25.97;;;;;;;3.42;100.00;101433.47;1728640;80;20891;-75
2021/10/03 00:05:09;;;;;;;51.88;24.80;;;;;;;3.40;100.00;101443.86;1731114;80;21090;-81
2021/10/03 00:07:36;;;;;;;52.17;29.15;;;;;;;3.37;100.00;101442.52;1730779;82;20953;-78
2021/10/03 00:10:05;;;;;;;48.70;23.47;;;;;;;3.37;100.00;101447.73;1732181;82;20950;-79
2021/10/03 00:12:32;;;;;;;63.28;30.20;;;;;;;3.36;100.00;101446.00;1732173;82;21652;-81
2021/10/03 00:14:58;;;;;;;59.58;31.62;;;;;;;3.37;100.00;101443.83;1726239;83;21041;-78
2021/10/03 00:17:24;;;;;;;61.95;31.02;;;;;;;3.40;100.00;101449.06;1725876;82;21068;-79
2021/10/03 00:19:51;;;;;;;62.85;32.08;;;;;;;3.39;100.00;101448.63;1726149;83;21595;-80
2021/10/03 00:22:18;;;;;;;66.47;32.73;;;;;;;3.40;100.00;101451.67;1725914;83;21145;-80
2021/10/03 00:24:45;;;;;;;65.42;31.62;;;;;;;3.41;100.00;101445.62;1725994;82;21104;-77
2021/10/03 00:27:11;;;;;;;61.37;31.52;;;;;;;3.42;100.00;101447.36;1725801;82;21152;-77
2021/10/03 00:29:38;;;;;;;67.45;30.08;;;;;;;3.43;100.00;101444.33;1724411;82;21032;-79
2021/10/03 00:32:06;;;;;;;58.00;30.35;;;;;;;3.43;100.00;101440.42;1720167;83;21507;-77
2021/10/03 00:34:34;;;;;;;60.17;29.80;;;;;;;3.46;100.00;101446.55;1720244;83;21133;-75
2021/10/03 00:37:00;;;;;;;59.27;28.57;;;;;;;3.46;100.00;101447.86;1720117;83;21627;-77
2021/10/03 00:39:27;;;;;;;55.40;28.27;;;;;;;3.47;100.00;101440.48;1720480;83;21113;-77
2021/10/03 00:41:55;;;;;;;33.75;18.35;;;;;;;3.51;100.00;101440.10;1720230;83;21061;-79
2021/10/03 00:44:21;;;;;;;54.13;28.45;;;;;;;3.53;100.00;101437.96;1715815;83;21088;-78
2021/10/03 00:46:50;;;;;;;36.88;18.62;;;;;;;3.54;100.00;101441.44;1720148;83;21099;-79
2021/10/03 00:49:16;;;;;;;37.73;16.70;;;;;;;3.55;100.00;101441.47;1720529;83;21073;-77
2021/10/03 00:51:43;;;;;;;45.08;23.98;;;;;;;3.56;100.00;101447.11;1720459;83;21120;-80
2021/10/03 00:54:09;;;;;;;52.78;25.17;;;;;;;3.55;100.00;101445.80;1720791;83;21072;-79
2021/10/03 00:56:36;;;;;;;41.58;21.30;;;;;;;3.55;100.00;101449.28;1720856;83;21532;-78
2021/10/03 00:59:03;;;;;;;49.18;26.57;;;;;;;3.55;100.00;101446.67;1720791;83;22328;-77
2021/10/03 01:01:30;;;;;;;49.00;25.82;;;;;;;3.53;100.00;101434.05;1724839;83;21021;-75
2021/10/03 01:03:57;;;;;;;58.13;28.98;;;;;;;3.51;100.00;101442.27;1725725;83;21092;-78
2021/10/03 01:06:23;;;;;;;54.73;26.60;;;;;;;3.52;100.00;101441.84;1725850;82;21549;-75
2021/10/03 01:08:51;;;;;;;55.17;28.92;;;;;;;3.49;100.00;101443.98;1725687;82;21086;-75
2021/10/03 01:11:18;;;;;;;48.65;25.65;;;;;;;3.47;100.00;101440.91;1725758;82;21515;-74
2021/10/03 01:13:47;;;;;;;52.67;27.05;;;;;;;3.48;100.00;101438.77;1725571;82;22231;-77
2021/10/03 01:16:15;;;;;;;45.80;25.40;;;;;;;3.47;100.00;101439.17;1726140;82;21069;-76
2021/10/03 01:18:42;;;;;;;56.30;26.33;;;;;;;3.49;100.00;101443.98;1725848;83;21563;-77
2021/10/03 01:21:08;;;;;;;47.23;25.60;;;;;;;3.52;100.00;101442.73;1726248;83;21026;-75
2021/10/03 01:23:35;;;;;;;53.98;26.50;;;;;;;3.54;100.00;101441.03;1725974;83;21155;-76
2021/10/03 01:26:02;;;;;;;50.38;24.77;;;;;;;3.55;100.00;101434.95;1725997;82;21382;-76
2021/10/03 01:28:29;;;;;;;31.62;17.60;;;;;;;3.56;100.00;101437.98;1725772;82;21100;-75
2021/10/03 01:30:56;;;;;;;41.98;21.05;;;;;;;3.53;100.00;101440.56;1721841;82;21157;-76
2021/10/03 01:33:26;;;;;;;41.13;23.15;;;;;;;3.50;100.00;101434.03;1722979;83;20993;-75
2021/10/03 01:35:55;;;;;;;52.85;24.15;;;;;;;3.49;100.00;101436.17;1724401;83;20956;-75
2021/10/03 01:38:21;;;;;;;36.95;19.92;;;;;;;3.48;100.00;101431.83;1723783;81;21073;-75
2021/10/03 01:40:48;;;;;;;46.00;23.47;;;;;;;3.49;100.00;101433.56;1720671;83;21064;-77
2021/10/03 01:43:16;;;;;;;41.23;21.40;;;;;;;3.49;100.00;101437.47;1720349;83;21135;-75
2021/10/03 01:45:45;;;;;;;48.28;24.23;;;;;;;3.48;100.00;101443.55;1720475;83;21048;-76
2021/10/03 01:48:20;;;;;;;45.92;23.27;;;;;;;3.45;100.00;101437.00;1720123;83;21971;-77
2021/10/03 01:50:58;;;;;;;51.75;25.15;;;;;;;3.42;100.00;101439.98;1717816;83;21176;-74
2021/10/03 01:53:31;;;;;;;43.30;23.45;;;;;;;3.38;100.00;101446.87;1706449;83;21555;-76
2021/10/03 01:55:58;;;;;;;45.08;23.40;;;;;;;3.36;100.00;101440.36;1707142;84;21073;-76
2021/10/03 01:58:30;;;;;;;49.93;25.23;;;;;;;3.35;100.00;101444.23;1706963;84;22107;-76
2021/10/03 02:01:01;;;;;;;45.00;22.77;;;;;;;3.33;100.00;101436.82;1707395;84;21092;-74
2021/10/03 02:03:28;;;;;;;36.75;19.20;;;;;;;3.29;100.00;101440.23;1706972;84;21069;-75
2021/10/03 02:05:55;;;;;;;47.50;24.30;;;;;;;3.26;100.00;101436.30;1707006;84;21068;-74
2021/10/03 02:08:22;;;;;;;27.15;15.93;;;;;;;3.27;100.00;101441.97;1707095;84;21039;-76
2021/10/03 02:10:51;;;;;;;29.42;16.95;;;;;;;3.22;100.00;101439.70;1706809;84;21096;-77
2021/10/03 02:13:21;;;;;;;43.42;22.80;;;;;;;3.20;100.00;101442.30;1707155;84;21174;-75
2021/10/03 02:15:48;;;;;;;41.28;20.30;;;;;;;3.18;100.00;101447.05;1707143;84;21038;-74
2021/10/03 02:18:16;;;;;;;34.30;18.85;;;;;;;3.12;100.00;101448.68;1707052;84;21085;-75
2021/10/03 02:20:44;;;;;;;35.33;19.05;;;;;;;3.08;100.00;101446.91;1707105;83;21025;-77
2021/10/03 02:23:12;;;;;;;40.60;19.20;;;;;;;3.05;100.00;101444.24;1707066;84;21096;-76
2021/10/03 02:25:47;;;;;;;49.33;24.35;;;;;;;3.04;100.00;101445.11;1706969;84;21046;-76
2021/10/03 02:28:19;;;;;;;39.33;23.27;;;;;;;3.03;100.00;101452.45;1706890;84;21178;-74
2021/10/03 02:30:48;;;;;;;37.63;20.37;;;;;;;3.00;100.00;101448.52;1711192;83;21617;-75
2021/10/03 02:33:14;;;;;;;48.10;23.98;;;;;;;2.99;100.00;101453.68;1713012;82;21116;-78
2021/10/03 02:35:42;;;;;;;40.43;21.70;;;;;;;2.94;100.00;101449.30;1712655;82;22173;-76
2021/10/03 02:38:11;;;;;;;44.03;22.70;;;;;;;2.90;100.00;101451.41;1713356;82;21082;-75
2021/10/03 02:40:37;;;;;;;40.33;20.35;;;;;;;2.88;100.00;101454.41;1713283;83;21233;-77
2021/10/03 02:43:05;;;;;;;33.33;17.32;;;;;;;2.86;100.00;101451.33;1712749;83;21077;-77
2021/10/03 02:45:35;;;;;;;41.37;20.27;;;;;;;2.82;100.00;101453.43;1713249;82;21678;-77
2021/10/03 02:48:03;;;;;;;40.38;20.68;;;;;;;2.82;100.00;101457.33;1713198;82;21061;-77
2021/10/03 02:50:30;;;;;;;39.33;21.95;;;;;;;2.83;100.00;101460.37;1713203;83;21091;-76
2021/10/03 02:52:56;;;;;;;30.20;15.03;;;;;;;2.81;100.00;101462.10;1724666;82;21042;-78
2021/10/03 02:55:23;;;;;;;36.33;18.27;;;;;;;2.79;100.00;101450.79;1726057;82;21033;-76
2021/10/03 02:57:50;;;;;;;33.40;15.93;;;;;;;2.78;100.00;101459.43;1725542;83;21041;-76
2021/10/03 03:00:17;;;;;;;29.35;14.75;;;;;;;2.76;100.00;101461.13;1725619;82;21081;-77
2021/10/03 03:02:44;;;;;;;32.17;16.15;;;;;;;2.72;100.00;101454.58;1725967;83;21937;-78
2021/10/03 03:05:11;;;;;;;35.13;19.10;;;;;;;2.74;100.00;101467.63;1726418;83;21075;-76
2021/10/03 03:07:38;;;;;;;38.08;18.45;;;;;;;2.75;100.00;101458.09;1726270;83;21040;-76
2021/10/03 03:10:07;;;;;;;46.50;21.75;;;;;;;2.72;100.00;101458.48;1726235;83;21511;-77
2021/10/03 03:12:35;;;;;;;36.40;20.23;;;;;;;2.72;100.00;101458.48;1726287;83;21012;-77
2021/10/03 03:15:05;;;;;;;37.42;19.95;;;;;;;2.75;100.00;101451.58;1726145;83;21828;-75
2021/10/03 03:17:32;;;;;;;40.35;20.25;;;;;;;2.73;100.00;101447.22;1726099;83;21039;-75
2021/10/03 03:19:58;;;;;;;37.67;19.37;;;;;;;2.69;100.00;101451.94;1726159;83;20982;-75
2021/10/03 03:22:26;;;;;;;41.92;19.82;;;;;;;2.67;100.00;101457.55;1726223;83;21084;-76
2021/10/03 03:24:53;;;;;;;35.88;18.32;;;;;;;2.71;100.00;101456.75;1726116;83;21076;-76
2021/10/03 03:27:21;;;;;;;33.65;16.57;;;;;;;2.81;100.00;101453.00;1726042;83;21140;-76
2021/10/03 03:29:47;;;;;;;39.20;18.30;;;;;;;2.90;100.00;101449.23;1724388;83;21107;-77
2021/10/03 03:32:14;;;;;;;34.80;16.40;;;;;;;2.99;100.00;101449.38;1719838;83;21539;-78
2021/10/03 03:34:41;;;;;;;35.25;16.97;;;;;;;3.02;100.00;101452.02;1720140;83;21092;-77
2021/10/03 03:37:10;;;;;;;21.10;11.97;;;;;;;3.05;100.00;101454.66;1720149;83;21548;-78
2021/10/03 03:39:38;;;;;;;25.50;13.88;;;;;;;3.07;100.00;101454.25;1720402;83;21129;-78
2021/10/03 03:42:04;;;;;;;25.62;14.25;;;;;;;3.09;100.00;101449.95;1720190;83;21038;-76
2021/10/03 03:44:31;;;;;;;32.28;16.12;;;;;;;3.12;100.00;101450.41;1720773;83;21122;-77
2021/10/03 03:47:00;;;;;;;29.90;13.65;;;;;;;3.14;100.00;101454.79;1720092;83;21477;-76
2021/10/03 03:49:27;;;;;;;28.50;15.32;;;;;;;3.18;100.00;101453.55;1720568;83;21131;-76
2021/10/03 03:51:54;;;;;;;33.02;17.35;;;;;;;3.26;100.00;101461.03;1720462;83;21177;-75
2021/10/03 03:54:21;;;;;;;34.25;17.48;;;;;;;3.31;100.00;101461.96;1721481;83;21021;-80
2021/10/03 03:56:49;;;;;;;27.07;15.63;;;;;;;3.35;100.00;101462.02;1727404;82;21062;-77
2021/10/03 03:59:16;;;;;;;31.25;15.38;;;;;;;3.42;100.00;101460.38;1725820;82;20903;-81
2021/10/03 04:01:42;;;;;;;30.02;15.85;;;;;;;3.49;100.00;101462.21;1721100;80;20974;-77
2021/10/03 04:04:10;;;;;;;36.23;18.33;;;;;;;3.58;100.00;101457.13;1730633;80;21257;-80
2021/10/03 04:06:36;;;;;;;30.68;17.07;;;;;;;3.64;100.00;101458.95;1723790;83;21655;-76
2021/10/03 04:09:03;;;;;;;37.50;20.08;;;;;;;3.68;100.00;101453.33;1721969;83;21056;-76
2021/10/03 04:11:29;;;;;;;32.25;18.90;;;;;;;3.69;100.00;101464.22;1722670;83;21057;-75
2021/10/03 04:13:56;;;;;;;38.05;20.50;;;;;;;3.73;100.00;101469.92;1722564;83;20997;-79
2021/10/03 04:16:23;;;;;;;31.52;18.27;;;;;;;3.76;100.00;101463.44;1722194;83;21161;-77
2021/10/03 04:18:49;;;;;;;33.23;17.70;;;;;;;3.84;100.00;101471.34;1721097;83;21049;-80
2021/10/03 04:21:15;;;;;;;32.53;18.27;;;;;;;3.91;100.00;101472.75;1723017;82;21028;-76
2021/10/03 04:23:42;;;;;;;33.35;17.73;;;;;;;3.95;100.00;101470.59;1724114;83;21030;-74
2021/10/03 04:26:09;;;;;;;24.98;13.83;;;;;;;3.98;100.00;101474.56;1724728;82;21033;-78
2021/10/03 04:28:36;;;;;;;31.48;16.67;;;;;;;4.04;100.00;101478.09;1722031;83;21121;-79
2021/10/03 04:31:02;;;;;;;24.95;14.05;;;;;;;4.08;100.00;101487.70;1721050;82;22083;-78
2021/10/03 04:33:28;;;;;;;33.98;16.50;;;;;;;4.10;100.00;101489.91;1720977;82;21072;-79
2021/10/03 04:35:55;;;;;;;27.15;12.78;;;;;;;4.09;100.00;101487.70;1711413;83;21025;-78
2021/10/03 04:38:21;;;;;;;29.35;14.87;;;;;;;4.17;100.00;101500.84;1717634;82;21116;-78
2021/10/03 04:40:48;;;;;;;32.42;15.98;;;;;;;4.19;100.00;101500.00;1720600;83;21702;-78
2021/10/03 04:43:14;;;;;;;36.98;16.80;;;;;;;4.23;100.00;101496.98;1724555;83;21065;-79
2021/10/03 04:45:42;;;;;;;25.97;14.47;;;;;;;4.26;100.00;101491.81;1724045;83;21821;-78
2021/10/03 04:48:09;;;;;;;30.88;15.13;;;;;;;4.30;100.00;101496.22;1719789;83;21057;-79
2021/10/03 04:50:35;;;;;;;35.90;16.57;;;;;;;4.37;100.00;101499.33;1725647;83;21084;-79
2021/10/03 04:53:02;;;;;;;28.70;15.70;;;;;;;4.43;99.73;101497.64;1715464;82;21144;-77
2021/10/03 04:55:28;;;;;;;28.85;15.43;;;;;;;4.69;99.88;101492.22;1711496;82;21117;-79
2021/10/03 04:57:55;;;;;;;27.98;13.80;;;;;;;5.23;98.54;101489.61;1710394;83;21077;-79
2021/10/03 05:00:22;;;;;;;32.95;14.43;;;;;;;5.87;97.47;101487.77;1709733;83;21544;-78
2021/10/03 05:02:49;;;;;;;24.98;13.95;;;;;;;6.58;90.37;101492.33;1711621;82;21089;-78
2021/10/03 05:05:15;;;;;;;25.72;13.90;;;;;;;7.13;89.45;101491.02;1708132;82;21476;-79
2021/10/03 05:07:43;;;;;;;27.40;14.05;;;;;;;7.74;88.36;101493.95;1711910;83;21541;-79
2021/10/03 05:10:10;;;;;;;33.40;14.20;;;;;;;8.29;82.35;101496.77;1709468;83;21002;-78
2021/10/03 05:12:38;;;;;;;24.23;13.05;;;;;;;8.85;82.39;101493.35;1706466;83;21058;-79
2021/10/03 05:15:07;;;;;;;25.37;12.93;;;;;;;9.47;79.24;101489.25;1707931;83;21518;-79
2021/10/03 05:17:33;;;;;;;22.60;12.75;;;;;;;10.03;78.25;101494.30;1709878;83;21141;-79
2021/10/03 05:20:00;;;;;;;24.00;12.50;;;;;;;10.59;73.20;101486.97;1712088;83;21059;-78
2021/10/03 05:22:28;;;;;;;20.43;12.40;;;;;;;11.01;70.25;101480.11;1711591;82;21038;-79
2021/10/03 05:24:55;;;;;;;26.90;13.28;;;;;;;11.34;67.87;101481.72;1711539;82;21065;-78
2021/10/03 05:27:22;;;;;;;22.32;12.33;;;;;;;11.42;65.34;101482.91;1711874;82;21065;-77
2021/10/03 05:29:48;;;;;;;23.02;14.05;;;;;;;11.52;66.89;101479.19;1709997;83;21977;-80
2021/10/03 05:32:15;;;;;;;20.85;12.68;;;;;;;11.88;64.63;101475.43;1709336;82;21010;-80
2021/10/03 05:34:42;;;;;;;24.47;13.15;;;;;;;12.22;64.47;101476.89;1706801;83;21070;-79
2021/10/03 05:37:09;;;;;;;21.45;12.40;;;;;;;12.57;60.04;101475.20;1708716;83;21044;-79
2021/10/03 05:39:35;;;;;;;37.70;24.60;;;;;;;12.73;59.83;101479.21;1706485;84;21081;-79
2021/10/03 05:42:02;;;;;;;23.55;15.00;;;;;;;12.97;56.76;101472.42;1706405;84;21726;-78
2021/10/03 05:44:29;;;;;;;24.25;14.00;;;;;;;13.12;56.02;101477.80;1706566;84;21025;-79
2021/10/03 05:46:55;;;;;;;28.23;15.98;;;;;;;13.18;55.83;101480.72;1708027;82;21034;-77
2021/10/03 05:49:22;;;;;;;18.37;13.20;;;;;;;13.40;56.58;101483.70;1712359;83;21057;-79
2021/10/03 05:51:49;;;;;;;21.05;12.30;;;;;;;13.69;55.33;101486.88;1710776;82;21105;-80
2021/10/03 05:54:16;;;;;;;20.50;12.10;;;;;;;14.01;55.43;101481.97;1712331;82;21274;-79
2021/10/03 05:56:42;;;;;;;17.85;11.88;;;;;;;14.38;53.37;101476.88;1712264;83;21057;-79
2021/10/03 05:59:12;;;;;;;20.32;11.53;;;;;;;14.45;52.72;101477.08;1712637;82;21042;-80
2021/10/03 06:01:40;;;;;;;18.77;10.60;;;;;;;14.54;51.14;101473.70;1705746;82;21085;-79
2021/10/03 06:04:07;;;;;;;22.75;11.80;;;;;;;14.67;52.21;101473.77;1712833;83;21096;-78
2021/10/03 06:06:34;;;;;;;19.85;12.33;;;;;;;14.99;50.49;101474.48;1712724;83;21085;-78
2021/10/03 06:09:02;;;;;;;18.20;11.85;;;;;;;15.34;49.01;101481.20;1711346;82;21838;-77
2021/10/03 06:11:29;;;;;;;16.02;10.38;;;;;;;15.52;48.43;101479.69;1711729;82;21596;-80
2021/10/03 06:13:57;;;;;;;18.32;11.60;;;;;;;15.55;49.53;101479.56;1708349;83;21026;-79
2021/10/03 06:16:23;;;;;;;22.67;12.35;;;;;;;15.69;47.79;101482.61;1707750;83;21620;-78
2021/10/03 06:18:51;;;;;;;21.55;12.28;;;;;;;15.70;45.93;101479.05;1708696;83;21137;-80
2021/10/03 06:21:17;;;;;;;16.80;11.33;;;;;;;15.65;46.91;101477.00;1711132;83;21125;-81
2021/10/03 06:23:46;;;;;;;16.20;11.00;;;;;;;15.84;46.36;101482.98;1708827;82;21053;-81
2021/10/03 06:26:14;;;;;;;19.80;11.53;;;;;;;16.01;45.50;101480.58;1706635;83;21084;-79
2021/10/03 06:28:42;;;;;;;15.32;11.65;;;;;;;16.04;45.17;101483.11;1710886;82;21022;-81
2021/10/03 06:31:09;;;;;;;18.45;11.48;;;;;;;16.16;44.39;101489.73;1712856;82;22064;-80
2021/10/03 06:33:37;;;;;;;19.73;11.10;;;;;;;16.38;43.81;101488.45;1699199;83;21066;-81
2021/10/03 06:36:06;;;;;;;18.35;11.78;;;;;;;16.58;43.58;101493.80;1711599;83;21117;-80
2021/10/03 06:38:32;;;;;;;20.50;12.63;;;;;;;16.95;43.41;101485.67;1709176;83;21593;-80
2021/10/03 06:41:00;;;;;;;15.53;11.08;;;;;;;17.36;42.27;101480.84;1708310;83;21144;-81
2021/10/03 06:43:26;;;;;;;19.05;11.90;;;;;;;17.53;41.75;101480.08;1712613;82;21082;-81
2021/10/03 06:45:52;;;;;;;17.80;11.78;;;;;;;17.83;40.84;101475.23;1709369;83;21074;-81
2021/10/03 06:48:19;;;;;;;19.67;12.40;;;;;;;17.96;39.81;101474.17;1711094;83;21034;-81
2021/10/03 06:50:45;;;;;;;18.77;12.35;;;;;;;17.95;40.01;101475.13;1712548;82;21026;-82
2021/10/03 06:53:12;;;;;;;18.37;12.50;;;;;;;18.15;39.78;101472.39;1716780;82;21081;-81
2021/10/03 06:55:38;;;;;;;16.97;11.60;;;;;;;18.23;38.61;101471.54;1725297;83;21141;-82
2021/10/03 06:58:07;;;;;;;25.12;13.60;;;;;;;18.26;38.84;101463.00;1724420;83;21052;-82
2021/10/03 07:00:34;;;;;;;18.27;13.65;;;;;;;18.45;38.84;101463.86;1725215;82;21073;-81
2021/10/03 07:03:00;;;;;;;23.02;13.93;;;;;;;18.72;37.49;101458.08;1724758;82;21097;-78
2021/10/03 07:05:26;;;;;;;20.88;13.43;;;;;;;18.94;37.13;101464.58;1725293;83;21065;-80
2021/10/03 07:07:53;;;;;;;20.43;12.60;;;;;;;19.14;36.03;101464.88;1723935;83;21102;-80
2021/10/03 07:10:19;;;;;;;18.02;11.53;;;;;;;19.42;36.12;101461.65;1716247;82;21073;-80
2021/10/03 07:12:47;;;;;;;16.87;11.73;;;;;;;19.69;36.56;101456.64;1711160;82;21064;-80
2021/10/03 07:15:14;;;;;;;16.12;11.03;;;;;;;19.98;34.77;101460.88;1724215;83;21092;-80
2021/10/03 07:17:42;;;;;;;15.55;10.60;;;;;;;20.22;34.50;101458.19;1724157;82;21014;-81
2021/10/03 07:20:09;;;;;;;17.60;10.60;;;;;;;20.35;33.61;101458.82;1721049;83;22235;-80
2021/10/03 07:22:36;;;;;;;15.00;10.90;;;;;;;20.59;33.31;101457.45;1723919;83;21045;-79
2021/10/03 07:25:04;;;;;;;18.42;10.60;;;;;;;21.18;32.76;101458.00;1723527;83;21219;-80
2021/10/03 07:27:31;;;;;;;16.60;10.63;;;;;;;21.41;32.02;101453.95;1723436;83;21073;-80
2021/10/03 07:29:58;;;;;;;15.90;10.53;;;;;;;21.69;31.85;101458.45;1720545;83;21044;-80
2021/10/03 07:32:24;;;;;;;16.67;10.00;;;;;;;22.13;30.84;101452.08;1722664;83;21569;-80
2021/10/03 07:34:52;;;;;;;16.50;9.13;;;;;;;22.47;30.67;101449.91;1721542;83;21056;-79
2021/10/03 07:37:20;;;;;;;15.10;8.93;;;;;;;22.72;29.30;101453.17;1721051;82;21073;-80
2021/10/03 07:39:47;;;;;;;13.58;8.15;;;;;;;22.53;28.80;101450.86;1721269;83;21040;-80
2021/10/03 07:42:13;;;;;;;13.50;8.35;;;;;;;22.24;29.15;101448.74;1722462;83;21072;-81
2021/10/03 07:44:39;;;;;;;13.50;8.50;;;;;;;22.25;29.93;101459.38;1723780;83;21462;-80
2021/10/03 07:47:06;;;;;;;14.18;9.45;;;;;;;22.26;29.99;101446.34;1722668;82;21057;-79
2021/10/03 07:49:33;;;;;;;15.50;9.18;;;;;;;22.35;30.21;101448.91;1724524;81;21068;-81
2021/10/03 07:52:00;;;;;;;14.10;7.97;;;;;;;22.56;30.30;101452.84;1723742;83;21080;-80
2021/10/03 07:54:26;;;;;;;10.20;7.55;;;;;;;22.77;28.92;101450.53;1718421;83;20986;-80
2021/10/03 07:56:54;;;;;;;13.25;7.50;;;;;;;22.72;29.51;101446.45;1710584;83;21497;-82
2021/10/03 07:59:20;;;;;;;13.50;7.17;;;;;;;22.86;28.09;101445.03;1726792;82;20998;-78
2021/10/03 08:01:49;;;;;;;13.13;6.70;;;;;;;22.96;28.15;101447.48;1719211;80;21621;-82
2021/10/03 08:04:15;;;;;;;10.18;7.15;;;;;;;22.93;27.67;101446.83;1715371;83;21152;-81
2021/10/03 08:06:42;;;;;;;12.33;7.90;;;;;;;23.07;27.63;101448.59;1713475;83;21525;-82
2021/10/03 08:09:08;;;;;;;13.18;7.42;;;;;;;23.10;27.60;101441.20;1690630;84;21129;-79
2021/10/03 08:11:35;;;;;;;10.15;7.17;;;;;;;23.25;27.85;101433.39;1702686;83;21143;-81
2021/10/03 08:14:01;;;;;;;12.65;7.12;;;;;;;23.44;26.44;101433.45;1742299;82;21501;-81
2021/10/03 08:16:28;;;;;;;12.35;7.33;;;;;;;23.29;26.73;101438.58;1750100;82;21100;-79
2021/10/03 08:18:58;;;;;;;11.38;7.08;;;;;;;22.97;27.19;101434.91;1737422;81;21037;-81
2021/10/03 08:21:24;;;;;;;28.80;23.02;;;;;;;22.98;27.62;101441.98;1670518;84;22130;-82
2021/10/03 08:23:52;;;;;;;9.50;7.80;;;;;;;23.07;27.31;101440.54;1721798;81;21031;-80
2021/10/03 08:26:18;;;;;;;10.30;6.45;;;;;;;23.15;27.50;101429.64;1719178;83;21045;-80
2021/10/03 08:28:45;;;;;;;8.25;6.55;;;;;;;23.62;27.25;101443.39;1723827;82;21069;-81
2021/10/03 08:31:12;;;;;;;8.30;5.83;;;;;;;23.95;27.15;101445.99;1725115;82;21022;-80
2021/10/03 08:33:38;;;;;;;10.60;5.30;;;;;;;23.88;25.60;101445.61;1720507;83;21890;-81
2021/10/03 08:36:06;;;;;;;7.42;5.05;;;;;;;23.70;25.66;101438.83;1691333;84;21097;-79
2021/10/03 08:38:32;;;;;;;8.93;5.53;;;;;;;23.62;25.47;101442.89;1691361;84;21089;-82
2021/10/03 08:41:01;;;;;;;7.35;5.12;;;;;;;23.65;25.68;101441.36;1725108;82;21703;-81
2021/10/03 08:43:29;;;;;;;9.43;5.78;;;;;;;23.63;25.15;101448.67;1720807;82;21017;-80
2021/10/03 08:45:57;;;;;;;7.50;5.33;;;;;;;23.39;25.29;101438.30;1742626;81;21073;-80
2021/10/03 08:48:24;;;;;;;9.98;5.25;;;;;;;23.30;26.17;101436.25;1722649;81;21077;-80
2021/10/03 08:50:51;;;;;;;11.70;5.53;;;;;;;23.29;25.27;101438.09;1718300;82;21096;-79
2021/10/03 08:53:18;;;;;;;12.33;5.35;;;;;;;23.27;25.07;101435.13;1719617;82;21065;-80
2021/10/03 08:55:45;;;;;;;9.08;5.70;;;;;;;23.13;25.62;101438.29;1719681;83;20999;-80
2021/10/03 08:58:12;;;;;;;9.20;5.42;;;;;;;22.95;25.61;101434.16;1715940;82;21323;-81
2021/10/03 09:00:49;;;;;;;12.65;4.87;;;;;;;23.08;25.71;101434.22;1717430;83;21536;-80
2021/10/03 09:03:17;;;;;;;10.45;5.47;;;;;;;23.39;24.60;101438.30;1710796;82;21293;-82
2021/10/03 09:05:54;;;;;;;8.15;5.28;;;;;;;23.59;25.14;101445.81;1716941;82;21068;-81
2021/10/03 09:08:29;;;;;;;8.05;4.65;;;;;;;23.79;24.69;101439.55;1716811;82;21045;-81
2021/10/03 09:11:03;;;;;;;8.78;4.67;;;;;;;23.80;24.80;101439.91;1717459;83;22138;-81
2021/10/03 09:13:36;;;;;;;8.13;4.50;;;;;;;23.89;23.08;101441.93;1712498;83;21093;-79
2021/10/03 09:16:18;;;;;;;8.38;4.12;;;;;;;23.79;24.17;101434.16;1715802;82;21037;-81
2021/10/03 09:18:48;;;;;;;7.65;4.70;;;;;;;23.37;23.52;101437.05;1711776;83;21033;-81
2021/10/03 09:21:34;;;;;;;5.70;4.08;;;;;;;23.45;23.23;101449.97;1713113;83;21076;-82
2021/10/03 09:24:14;;;;;;;7.95;4.33;;;;;;;22.83;23.73;101448.79;1704599;83;21139;-78
2021/10/03 09:27:03;;;;;;;7.17;3.50;;;;;;;22.63;23.56;101447.44;1711330;83;21018;-81
2021/10/03 09:29:33;;;;;;;6.83;4.05;;;;;;;22.61;23.71;101444.48;1716669;83;21060;-81
2021/10/03 09:32:10;;;;;;;8.70;4.17;;;;;;;22.32;24.07;101441.92;1679420;85;21064;-79
2021/10/03 09:34:39;;;;;;;6.53;4.40;;;;;;;22.45;24.49;101434.39;1717778;83;21093;-80
2021/10/03 09:37:30;;;;;;;6.05;3.95;;;;;;;22.78;23.99;101435.31;1718004;83;21101;-80
2021/10/03 09:40:12;;;;;;;9.83;4.35;;;;;;;22.95;24.00;101443.06;1717937;83;21042;-79
2021/10/03 09:42:43;;;;;;;8.70;4.30;;;;;;;22.89;23.39;101442.62;1716719;83;21026;-80
2021/10/03 09:45:17;;;;;;;10.45;4.47;;;;;;;22.68;23.78;101448.47;1699044;83;21056;-80
2021/10/03 09:47:45;;;;;;;9.43;4.35;;;;;;;22.51;24.11;101436.19;1717235;83;21121;-81
2021/10/03 09:50:15;;;;;;;6.33;3.98;;;;;;;22.56;24.27;101422.45;1708734;82;127448;-79
2021/10/03 09:52:42;;;;;;;8.85;4.25;;;;;;;22.63;25.00;101431.81;1712618;83;21112;-80
2021/10/03 09:55:14;;;;;;;7.33;3.92;;;;;;;22.86;23.81;101433.44;1700350;83;21056;-81
2021/10/03 09:57:45;;;;;;;12.40;3.70;;;;;;;22.80;24.21;101428.02;1710400;83;21619;-81
2021/10/03 10:00:16;;;;;;;8.75;3.87;;;;;;;22.92;24.34;101426.31;1704259;83;21045;-81
2021/10/03 10:02:45;;;;;;;5.58;3.35;;;;;;;23.15;23.54;101420.23;1706653;83;21124;-81
2021/10/03 10:05:11;;;;;;;5.67;3.72;;;;;;;23.08;23.34;101412.72;1688900;84;21077;-80
2021/10/03 10:07:39;;;;;;;9.80;4.03;;;;;;;22.66;23.88;101412.84;1689495;84;21036;-81
2021/10/03 10:10:08;;;;;;;8.98;3.75;;;;;;;22.32;24.61;101415.08;1659747;86;21031;-79
2021/10/03 10:12:48;;;;;;;5.92;3.75;;;;;;;22.40;24.76;101406.02;1689479;84;21072;-82
2021/10/03 10:15:21;;;;;;;8.93;4.17;;;;;;;22.61;24.33;101406.44;1668264;84;21961;-83
2021/10/03 10:17:49;;;;;;;6.35;3.95;;;;;;;22.89;23.79;101407.70;1676794;85;21136;-79
2021/10/03 10:20:27;;;;;;;6.08;4.10;;;;;;;22.94;23.65;101416.33;1673157;85;21116;-81
2021/10/03 10:23:08;;;;;;;9.33;3.93;;;;;;;22.87;24.86;101412.31;1690813;84;22266;-79
2021/10/03 10:25:42;;;;;;;6.53;3.75;;;;;;;22.76;24.54;101400.49;1660826;86;21084;-81
2021/10/03 10:28:24;;;;;;;7.08;3.75;;;;;;;22.64;25.02;101406.70;1690333;84;21105;-82
2021/10/03 10:31:12;;;;;;;10.48;4.42;;;;;;;22.86;25.10;101399.86;1669010;85;21045;-80
2021/10/03 10:34:00;;;;;;;6.60;3.40;;;;;;;23.42;23.85;101395.06;1683581;84;21321;-82
2021/10/03 10:36:33;;;;;;;7.20;3.92;;;;;;;22.96;23.32;101392.87;1674066;85;21144;-81
2021/10/03 10:39:15;;;;;;;11.48;4.30;;;;;;;22.43;24.23;101390.22;1657876;86;21079;-80
2021/10/03 10:41:52;;;;;;;6.70;3.92;;;;;;;22.51;24.62;101397.75;1689105;84;21122;-80
2021/10/03 10:44:32;;;;;;;6.03;3.80;;;;;;;22.49;23.93;101399.67;1678757;85;21096;-81
2021/10/03 10:47:14;;;;;;;6.17;4.30;;;;;;;22.23;25.57;101391.54;1691913;84;21601;-80
2021/10/03 10:49:49;;;;;;;5.65;3.92;;;;;;;22.41;24.21;101391.66;1666357;85;21100;-79
2021/10/03 10:52:25;;;;;;;9.10;5.00;;;;;;;22.24;24.64;101391.91;1687481;84;21083;-80
2021/10/03 10:55:13;;;;;;;9.50;4.40;;;;;;;22.38;24.93;101370.86;1650556;86;21127;-79
2021/10/03 10:57:57;;;;;;;8.23;4.70;;;;;;;22.70;24.61;101382.11;1686343;84;22240;-80
2021/10/03 11:00:28;;;;;;;6.87;4.08;;;;;;;22.78;24.27;101374.39;1655519;85;21060;-80
2021/10/03 11:02:59;;;;;;;9.50;3.98;;;;;;;22.29;25.08;101382.20;1679228;83;21077;-81
2021/10/03 11:05:47;;;;;;;5.85;3.80;;;;;;;21.87;25.33;101375.50;1671630;85;21079;-80
2021/10/03 11:08:17;;;;;;;9.73;4.60;;;;;;;21.96;26.31;101364.66;1671610;85;22463;-81
2021/10/03 11:11:09;;;;;;;10.82;4.30;;;;;;;22.23;24.84;101356.66;1667965;85;21583;-82
2021/10/03 11:13:46;;;;;;;6.90;4.20;;;;;;;22.16;25.15;101358.85;1659019;85;25708;-81
2021/10/03 11:16:30;;;;;;;9.48;4.65;;;;;;;21.96;24.86;101362.84;1671586;85;21102;-81
2021/10/03 11:19:24;;;;;;;7.75;4.05;;;;;;;21.80;25.60;101362.12;1682576;85;20991;-80
2021/10/03 11:21:54;;;;;;;10.90;3.85;;;;;;;21.62;25.48;101365.98;1645722;87;21495;-82